No particular awareness of the weather is required.    There are no Weather-warnings


Meteo18 Weather Cam more information Meteo18 Weather Cam


Thunder radar more information blitzortung!


Rain radar more information rain snow radar


Visit our other weather sites:

Template documentation
and downloads

And another site



Weather Underground History page Text

Daily Summary for July 22, 2017 Units:  English    Metric   Both
« Previous Day
Next Day »
Daily Weekly Monthly Yearly Custom
  High: Low: Average:
Temperature: TemperatureC °F 13.4 °F 18.7 °F
Dew Point: DewpointC °F 11.1 °F 13.7 °F
Humidity: Humidity % 57 % 73 %
Wind Speed: WindSpeedKMH mph 0.0 mph 8.7 mph
Wind Gust: WindSpeedGustKMH mph - -
Wind:- - SW
Pressure: PressurehPa in 1012.8 in -
Precipitation: 1.5 in    
Historical Graphs
 
 
Tabular Data for July 22, 2017
Time Temperature Dew Point Pressure Wind Wind Speed Wind Gust Humidity Rainfall Rate (Hourly)
TemperatureC °F DewpointC °F PressurehPa in Calm     Humidity % HourlyPrecipMM in
00:02 20.2 °F 12.2 °F 1013.1 in SW 4.8 mph 20.9 mph 60 % 0.0 in
00:12 20.1 °F 12.1 °F 1013.1 in WNW 8.0 mph 17.7 mph 60 % 0.0 in
00:17 20.1 °F 12.1 °F 1013.1 in SW 6.4 mph 17.7 mph 60 % 0.0 in
00:22 20.0 °F 12.2 °F 1013.1 in West 8.0 mph 19.3 mph 61 % 0.0 in
00:27 19.9 °F 12.2 °F 1012.8 in WSW 8.0 mph 19.3 mph 61 % 0.0 in
00:32 19.8 °F 12.3 °F 1013.1 in West 4.8 mph 19.3 mph 62 % 0.0 in
00:37 19.7 °F 12.2 °F 1013.1 in SW 11.3 mph 19.3 mph 62 % 0.0 in
00:42 19.7 °F 12.2 °F 1013.1 in West 9.7 mph 16.1 mph 62 % 0.0 in
00:47 19.6 °F 12.1 °F 1013.1 in West 4.8 mph 12.9 mph 62 % 0.0 in
00:52 19.4 °F 12.2 °F 1013.1 in West 3.2 mph 12.9 mph 63 % 0.0 in
00:57 19.3 °F 12.1 °F 1013.4 in WSW 4.8 mph 12.9 mph 63 % 0.0 in
01:02 19.3 °F 12.3 °F 1013.1 in West 4.8 mph 12.9 mph 64 % 0.0 in
01:07 19.2 °F 12.2 °F 1013.1 in WSW 4.8 mph 14.5 mph 64 % 0.0 in
01:12 19.2 °F 12.2 °F 1013.1 in West 8.0 mph 14.5 mph 64 % 0.0 in
01:17 19.1 °F 12.4 °F 1013.1 in SW 6.4 mph 11.3 mph 65 % 0.0 in
01:22 19.1 °F 12.4 °F 1013.1 in SW 9.7 mph 11.3 mph 65 % 0.0 in
01:27 19.1 °F 12.4 °F 1013.1 in West 4.8 mph 17.7 mph 65 % 0.0 in
01:32 19.0 °F 12.3 °F 1013.1 in WSW 6.4 mph 17.7 mph 65 % 0.0 in
01:37 19.1 °F 12.4 °F 1013.1 in SSW 6.4 mph 17.7 mph 65 % 0.0 in
01:42 19.1 °F 12.4 °F 1013.1 in SW 6.4 mph 17.7 mph 65 % 0.0 in
01:47 19.1 °F 12.4 °F 1013.4 in SW 3.2 mph 16.1 mph 65 % 0.0 in
01:52 19.1 °F 12.4 °F 1013.1 in SSW 3.2 mph 16.1 mph 65 % 0.0 in
02:02 18.8 °F 12.3 °F 1013.1 in SW 6.4 mph 9.7 mph 66 % 0.0 in
02:07 18.7 °F 12.4 °F 1013.1 in SSW 4.8 mph 8.0 mph 67 % 0.0 in
02:12 18.6 °F 12.6 °F 1013.1 in SW 11.3 mph 11.3 mph 68 % 0.0 in
02:17 18.6 °F 12.4 °F 1013.1 in SW 17.7 mph 17.7 mph 67 % 0.0 in
02:22 18.5 °F 12.5 °F 1013.1 in SW 6.4 mph 14.5 mph 68 % 0.0 in
02:27 18.3 °F 12.3 °F 1013.1 in SSW 3.2 mph 17.7 mph 68 % 0.0 in
02:32 18.1 °F 12.1 °F 1013.4 in SSE 3.2 mph 17.7 mph 68 % 0.0 in
02:37 17.7 °F 12.2 °F 1013.4 in South 4.8 mph 11.3 mph 70 % 0.0 in
02:42 17.3 °F 12.0 °F 1013.4 in SW 4.8 mph 11.3 mph 71 % 0.0 in
02:52 16.7 °F 11.8 °F 1013.4 in South 1.6 mph 6.4 mph 73 % 0.0 in
02:57 16.5 °F 11.8 °F 1013.4 in SSW 3.2 mph 4.8 mph 74 % 0.0 in
03:02 16.3 °F 11.9 °F 1013.4 in SSW 3.2 mph 4.8 mph 75 % 0.0 in
03:12 16.1 °F 11.7 °F 1013.8 in SSW 4.8 mph 4.8 mph 75 % 0.0 in
03:17 16.0 °F 11.8 °F 1013.8 in SW 4.8 mph 6.4 mph 76 % 0.0 in
03:22 16.1 °F 11.9 °F 1013.8 in SW 4.8 mph 6.4 mph 76 % 0.0 in
03:32 16.2 °F 11.8 °F 1013.8 in South 6.4 mph 8.0 mph 75 % 0.0 in
03:37 16.2 °F 12.0 °F 1013.8 in SSW 6.4 mph 8.0 mph 76 % 0.0 in
03:42 16.3 °F 12.1 °F 1013.8 in South 4.8 mph 8.0 mph 76 % 0.0 in
03:47 16.3 °F 12.1 °F 1013.8 in South 3.2 mph 6.4 mph 76 % 0.0 in
03:52 16.1 °F 11.9 °F 1013.8 in SSW 4.8 mph 6.4 mph 76 % 0.0 in
03:57 16.1 °F 12.1 °F 1013.8 in SSW 3.2 mph 8.0 mph 77 % 0.0 in
04:02 16.1 °F 12.1 °F 1013.8 in SSW 3.2 mph 8.0 mph 77 % 0.0 in
04:12 16.1 °F 12.1 °F 1013.8 in SSW 1.6 mph 8.0 mph 77 % 0.0 in
04:17 16.1 °F 12.1 °F 1013.8 in Calm   6.4 mph 77 % 0.0 in
04:22 15.9 °F 11.9 °F 1013.8 in Calm   6.4 mph 77 % 0.0 in
04:27 15.8 °F 12.0 °F 1013.8 in SSW 1.6 mph 4.8 mph 78 % 0.0 in
04:32 15.8 °F 12.0 °F 1013.8 in SSW 1.6 mph 4.8 mph 78 % 0.0 in
04:37 15.7 °F 11.9 °F 1013.4 in Calm   4.8 mph 78 % 0.0 in
04:42 15.4 °F 11.8 °F 1013.4 in Calm   4.8 mph 79 % 0.0 in
04:47 15.3 °F 11.9 °F 1013.4 in Calm   3.2 mph 80 % 0.0 in
04:52 15.2 °F 11.8 °F 1013.4 in South 1.6 mph 3.2 mph 80 % 0.0 in
05:02 14.9 °F 11.7 °F 1013.8 in Calm   3.2 mph 81 % 0.0 in
05:12 14.6 °F 11.4 °F 1013.8 in Calm   4.8 mph 81 % 0.0 in
05:17 14.3 °F 11.3 °F 1013.8 in SSW 1.6 mph 1.6 mph 82 % 0.0 in
05:22 14.2 °F 11.4 °F 1013.8 in Calm   1.6 mph 83 % 0.0 in
05:32 14.1 °F 11.4 °F 1013.8 in Calm   3.2 mph 84 % 0.0 in
05:42 13.9 °F 11.2 °F 1014.1 in Calm   3.2 mph 84 % 0.0 in
05:47 13.8 °F 11.1 °F 1014.1 in Calm   3.2 mph 84 % 0.0 in
05:52 13.8 °F 11.3 °F 1014.1 in Calm   3.2 mph 85 % 0.0 in
06:02 13.8 °F 11.5 °F 1014.1 in Calm   1.6 mph 86 % 0.0 in
06:07 13.7 °F 11.4 °F 1014.1 in Calm   1.6 mph 86 % 0.0 in
06:12 13.6 °F 11.3 °F 1014.4 in Calm   1.6 mph 86 % 0.0 in
06:17 13.5 °F 11.2 °F 1014.4 in SSW 1.6 mph 1.6 mph 86 % 0.0 in
06:22 13.4 °F 11.3 °F 1014.4 in SW 3.2 mph 3.2 mph 87 % 0.0 in
06:32 13.5 °F 11.2 °F 1014.1 in SSW 1.6 mph 3.2 mph 86 % 0.0 in
06:37 13.5 °F 11.2 °F 1014.1 in Calm   3.2 mph 86 % 0.0 in
06:42 13.6 °F 11.3 °F 1014.4 in Calm   3.2 mph 86 % 0.0 in
06:52 13.6 °F 11.1 °F 1014.4 in Calm   1.6 mph 85 % 0.0 in
07:02 14.1 °F 11.8 °F 1014.4 in Calm   1.6 mph 86 % 0.0 in
07:12 14.7 °F 12.0 °F 1014.4 in Calm   3.2 mph 84 % 0.0 in
07:17 14.9 °F 12.0 °F 1014.4 in Calm   3.2 mph 83 % 0.0 in
07:27 15.4 °F 12.3 °F 1014.4 in SSW 1.6 mph 3.2 mph 82 % 0.0 in
07:32 15.5 °F 12.4 °F 1014.4 in SSE 1.6 mph 3.2 mph 82 % 0.0 in
07:42 15.8 °F 12.7 °F 1014.4 in South 6.4 mph 6.4 mph 82 % 0.0 in
07:47 15.9 °F 12.6 °F 1014.4 in SSW 4.8 mph 8.0 mph 81 % 0.0 in
07:57 16.2 °F 12.7 °F 1014.4 in South 12.9 mph 14.5 mph 80 % 0.0 in
08:02 16.3 °F 12.8 °F 1014.4 in SSW 6.4 mph 14.5 mph 80 % 0.0 in
08:12 16.7 °F 13.0 °F 1014.4 in SW 11.3 mph 19.3 mph 79 % 0.0 in
08:17 16.8 °F 13.1 °F 1014.4 in SW 12.9 mph 19.3 mph 79 % 0.0 in
08:22 17.1 °F 13.2 °F 1014.4 in SW 11.3 mph 19.3 mph 78 % 0.0 in
08:32 17.6 °F 13.3 °F 1014.8 in SW 12.9 mph 20.9 mph 76 % 0.0 in
08:42 17.8 °F 13.1 °F 1014.8 in South 14.5 mph 20.9 mph 74 % 0.0 in
08:47 17.9 °F 13.2 °F 1014.8 in SW 19.3 mph 24.1 mph 74 % 0.0 in
08:52 18.1 °F 13.2 °F 1014.8 in SW 19.3 mph 24.1 mph 73 % 0.0 in
09:02 18.3 °F 13.2 °F 1014.8 in South 12.9 mph 24.1 mph 72 % 0.0 in
09:12 18.7 °F 13.1 °F 1014.8 in West 11.3 mph 27.4 mph 70 % 0.0 in
09:17 18.8 °F 13.4 °F 1014.8 in WSW 16.1 mph 27.4 mph 71 % 0.0 in
09:22 18.8 °F 13.2 °F 1014.8 in West 8.0 mph 27.4 mph 70 % 0.0 in
09:32 19.1 °F 13.1 °F 1014.8 in SW 14.5 mph 24.1 mph 68 % 0.0 in
09:42 19.4 °F 13.3 °F 1014.8 in SW 16.1 mph 27.4 mph 68 % 0.0 in
09:47 19.3 °F 13.2 °F 1014.8 in SW 19.3 mph 27.4 mph 68 % 0.0 in
09:52 19.3 °F 12.8 °F 1014.8 in SSW 12.9 mph 27.4 mph 66 % 0.0 in
10:02 19.4 °F 12.9 °F 1014.8 in WSW 14.5 mph 27.4 mph 66 % 0.0 in
10:12 19.8 °F 13.3 °F 1014.8 in WNW 9.7 mph 27.4 mph 66 % 0.0 in
10:17 19.9 °F 12.9 °F 1014.8 in SW 17.7 mph 22.5 mph 64 % 0.0 in
10:22 19.8 °F 13.0 °F 1014.8 in WSW 11.3 mph 22.5 mph 65 % 0.0 in
10:32 20.5 °F 13.7 °F 1014.8 in WSW 14.5 mph 24.1 mph 65 % 0.0 in
10:42 20.7 °F 13.4 °F 1014.8 in WSW 12.9 mph 20.9 mph 63 % 0.0 in
10:52 20.7 °F 13.9 °F 1014.8 in SSW 12.9 mph 25.7 mph 65 % 0.0 in
11:02 20.9 °F 13.8 °F 1014.8 in SW 19.3 mph 27.4 mph 64 % 0.0 in
11:12 20.9 °F 13.6 °F 1014.8 in SW 16.1 mph 27.4 mph 63 % 0.0 in
11:22 20.9 °F 13.6 °F 1014.8 in SW 14.5 mph 27.4 mph 63 % 0.0 in
11:32 21.3 °F 13.5 °F 1014.8 in SW 14.5 mph 24.1 mph 61 % 0.0 in
11:37 21.2 °F 13.6 °F 1014.8 in WSW 9.7 mph 29.0 mph 62 % 0.0 in
11:42 21.3 °F 13.7 °F 1014.8 in South 16.1 mph 29.0 mph 62 % 0.0 in
11:52 21.2 °F 13.6 °F 1014.8 in WSW 8.0 mph 25.7 mph 62 % 0.0 in
12:02 21.2 °F 13.6 °F 1014.8 in SW 8.0 mph 24.1 mph 62 % 0.0 in
12:07 21.7 °F 14.3 °F 1014.4 in South 4.8 mph 25.7 mph 63 % 0.0 in
12:17 21.9 °F 13.8 °F 1014.4 in South 14.5 mph 24.1 mph 60 % 0.0 in
12:22 22.2 °F 14.1 °F 1014.4 in SSW 9.7 mph 24.1 mph 60 % 0.0 in
12:32 22.7 °F 14.3 °F 1014.4 in SSE 9.7 mph 25.7 mph 59 % 0.0 in
12:37 22.5 °F 14.3 °F 1014.4 in SW 14.5 mph 22.5 mph 60 % 0.0 in
12:42 22.6 °F 13.9 °F 1014.4 in WSW 14.5 mph 22.5 mph 58 % 0.0 in
12:52 22.7 °F 14.3 °F 1014.4 in SSW 4.8 mph 22.5 mph 59 % 0.0 in
12:57 22.6 °F 13.9 °F 1014.4 in SSW 17.7 mph 22.5 mph 58 % 0.0 in
13:02 22.4 °F 14.0 °F 1014.4 in SSW 16.1 mph 22.5 mph 59 % 0.0 in
13:12 22.3 °F 14.2 °F 1014.4 in WSW 8.0 mph 27.4 mph 60 % 0.0 in
13:17 22.5 °F 14.3 °F 1014.4 in WSW 12.9 mph 27.4 mph 60 % 0.0 in
13:27 22.7 °F 14.3 °F 1014.1 in WSW 12.9 mph 22.5 mph 59 % 0.0 in
13:32 22.9 °F 14.7 °F 1014.1 in WSW 9.7 mph 20.9 mph 60 % 0.0 in
13:42 23.3 °F 14.8 °F 1014.1 in WSW 11.3 mph 22.5 mph 59 % 0.0 in
13:52 23.4 °F 14.4 °F 1014.1 in SW 12.9 mph 27.4 mph 57 % 0.0 in
13:57 23.3 °F 14.6 °F 1014.4 in SW 16.1 mph 24.1 mph 58 % 0.0 in
14:02 23.0 °F 14.3 °F 1014.4 in SSW 6.4 mph 24.1 mph 58 % 0.0 in
14:07 22.9 °F 14.5 °F 1014.4 in SW 16.1 mph 33.8 mph 59 % 0.0 in
14:12 22.7 °F 14.5 °F 1014.4 in SW 25.7 mph 33.8 mph 60 % 0.0 in
14:17 22.7 °F 14.8 °F 1014.4 in West 12.9 mph 25.7 mph 61 % 0.0 in
14:22 22.7 °F 14.5 °F 1014.1 in WSW 6.4 mph 25.7 mph 60 % 0.0 in
14:32 22.7 °F 15.0 °F 1014.4 in West 12.9 mph 25.7 mph 62 % 0.0 in
14:37 22.8 °F 14.9 °F 1014.1 in West 8.0 mph 20.9 mph 61 % 0.0 in
14:42 23.0 °F 15.3 °F 1014.4 in NW 3.2 mph 20.9 mph 62 % 0.0 in
14:47 23.2 °F 15.3 °F 1014.4 in WNW 12.9 mph 16.1 mph 61 % 0.0 in
14:52 22.9 °F 15.2 °F 1014.4 in WNW 6.4 mph 16.1 mph 62 % 0.0 in
14:57 22.4 °F 15.0 °F 1014.4 in West 11.3 mph 22.5 mph 63 % 0.0 in
15:02 22.2 °F 15.1 °F 1014.1 in NW 3.2 mph 22.5 mph 64 % 0.0 in
15:07 22.3 °F 15.4 °F 1014.1 in West 8.0 mph 22.5 mph 65 % 0.0 in
15:12 22.2 °F 15.1 °F 1014.1 in WSW 6.4 mph 22.5 mph 64 % 0.0 in
15:17 22.4 °F 15.3 °F 1014.1 in WNW 4.8 mph 17.7 mph 64 % 0.0 in
15:22 23.0 °F 15.3 °F 1014.1 in West 8.0 mph 17.7 mph 62 % 0.0 in
15:27 23.3 °F 15.6 °F 1014.1 in SW 3.2 mph 17.7 mph 62 % 0.0 in
15:32 23.2 °F 15.3 °F 1013.8 in WSW 3.2 mph 17.7 mph 61 % 0.0 in
15:37 23.6 °F 15.9 °F 1013.8 in WSW 14.5 mph 16.1 mph 62 % 0.0 in
15:42 23.7 °F 15.5 °F 1013.8 in WSW 22.5 mph 22.5 mph 60 % 0.0 in
15:52 23.3 °F 15.9 °F 1013.8 in WNW 9.7 mph 24.1 mph 63 % 0.0 in
15:57 23.6 °F 15.6 °F 1013.8 in WNW 6.4 mph 24.1 mph 61 % 0.0 in
16:02 23.4 °F 15.7 °F 1013.8 in SSW 11.3 mph 24.1 mph 62 % 0.0 in
16:12 22.9 °F 15.5 °F 1013.8 in West 4.8 mph 22.5 mph 63 % 0.0 in
16:22 22.9 °F 15.5 °F 1014.1 in WNW 8.0 mph 22.5 mph 63 % 0.0 in
16:32 22.6 °F 15.4 °F 1014.1 in WNW 11.3 mph 20.9 mph 64 % 0.0 in
16:37 22.5 °F 15.3 °F 1014.1 in WNW 9.7 mph 25.7 mph 64 % 0.0 in
16:42 22.4 °F 15.5 °F 1014.1 in West 9.7 mph 25.7 mph 65 % 0.0 in
16:47 22.2 °F 15.3 °F 1014.1 in WSW 11.3 mph 27.4 mph 65 % 0.0 in
16:52 22.2 °F 15.3 °F 1014.1 in West 14.5 mph 27.4 mph 65 % 0.0 in
16:57 21.9 °F 15.0 °F 1014.4 in WNW 27.4 mph 30.6 mph 65 % 0.0 in
17:02 21.5 °F 15.1 °F 1014.4 in West 12.9 mph 30.6 mph 67 % 0.0 in
17:07 21.1 °F 15.0 °F 1014.4 in WSW 24.1 mph 37.0 mph 68 % 0.0 in
17:12 20.8 °F 15.1 °F 1014.4 in WSW 14.5 mph 37.0 mph 70 % 0.0 in
17:17 20.3 °F 15.3 °F 1014.4 in West 22.5 mph 37.0 mph 73 % 0.0 in
17:22 19.1 °F 15.2 °F 1014.8 in West 27.4 mph 37.0 mph 78 % 0.0 in
17:32 17.7 °F 15.5 °F 1014.8 in WSW 16.1 mph 41.8 mph 87 % 0.0 in
17:42 17.2 °F 15.5 °F 1014.8 in WSW 17.7 mph 35.4 mph 90 % 0.8 in
17:47 17.1 °F 15.6 °F 1014.8 in West 17.7 mph 37.0 mph 91 % 1.5 in
17:52 17.2 °F 15.7 °F 1014.8 in WSW 17.7 mph 37.0 mph 91 % 1.5 in
17:57 17.2 °F 15.7 °F 1014.4 in West 9.7 mph 32.2 mph 91 % 1.5 in
18:02 17.4 °F 15.9 °F 1014.4 in West 12.9 mph 32.2 mph 91 % 1.5 in
18:07 17.8 °F 16.1 °F 1014.4 in SW 8.0 mph 29.0 mph 90 % 1.5 in
18:12 18.2 °F 16.4 °F 1014.4 in SSW 6.4 mph 29.0 mph 89 % 1.5 in
18:17 18.2 °F 16.2 °F 1014.4 in West 8.0 mph 24.1 mph 88 % 1.5 in
18:22 18.3 °F 16.3 °F 1014.4 in SW 14.5 mph 19.3 mph 88 % 1.5 in
18:27 18.4 °F 16.4 °F 1014.1 in SW 12.9 mph 19.3 mph 88 % 1.5 in
18:32 18.4 °F 16.4 °F 1014.4 in WSW 6.4 mph 17.7 mph 88 % 1.5 in
18:37 18.4 °F 16.4 °F 1014.4 in WSW 4.8 mph 17.7 mph 88 % 1.5 in
18:42 18.5 °F 16.5 °F 1014.4 in WSW 9.7 mph 17.7 mph 88 % 0.5 in
18:52 18.8 °F 16.9 °F 1014.4 in SW 3.2 mph 16.1 mph 89 % 0.0 in
18:57 18.9 °F 16.3 °F 1014.4 in SW 11.3 mph 19.3 mph 85 % 0.0 in
19:02 19.1 °F 16.7 °F 1014.4 in WSW 6.4 mph 19.3 mph 86 % 0.0 in
19:12 18.9 °F 16.3 °F 1014.4 in WSW 12.9 mph 22.5 mph 85 % 0.0 in
19:17 18.8 °F 16.4 °F 1014.4 in WSW 8.0 mph 22.5 mph 86 % 0.0 in
19:22 18.9 °F 16.7 °F 1014.4 in WSW 4.8 mph 22.5 mph 87 % 0.0 in
19:27 18.9 °F 16.7 °F 1014.4 in SSW 11.3 mph 19.3 mph 87 % 0.0 in
19:32 19.0 °F 16.8 °F 1014.4 in SW 4.8 mph 19.3 mph 87 % 0.0 in
19:37 19.1 °F 16.7 °F 1014.4 in SW 14.5 mph 19.3 mph 86 % 0.0 in
19:42 19.1 °F 16.7 °F 1014.4 in SW 8.0 mph 19.3 mph 86 % 0.0 in
19:47 19.1 °F 16.7 °F 1014.4 in WSW 12.9 mph 24.1 mph 86 % 0.0 in
19:52 19.1 °F 16.7 °F 1014.4 in SSW 16.1 mph 24.1 mph 86 % 0.0 in
19:57 19.1 °F 16.7 °F 1014.4 in SSW 8.0 mph 24.1 mph 86 % 0.0 in
20:02 19.1 °F 16.5 °F 1014.4 in SSW 12.9 mph 24.1 mph 85 % 0.0 in
20:07 19.2 °F 16.6 °F 1014.8 in WSW 12.9 mph 19.3 mph 85 % 0.0 in
20:12 19.2 °F 16.4 °F 1014.4 in SW 4.8 mph 19.3 mph 84 % 0.0 in
20:17 19.1 °F 16.0 °F 1014.4 in WSW 14.5 mph 20.9 mph 82 % 0.0 in
20:22 19.1 °F 16.0 °F 1014.4 in SSW 12.9 mph 20.9 mph 82 % 0.0 in
20:32 19.2 °F 16.1 °F 1014.8 in SW 6.4 mph 20.9 mph 82 % 0.0 in
20:37 19.3 °F 16.0 °F 1014.8 in SSW 8.0 mph 16.1 mph 81 % 0.0 in
20:42 19.4 °F 16.1 °F 1014.8 in South 8.0 mph 16.1 mph 81 % 0.0 in
20:52 19.2 °F 15.9 °F 1014.8 in SW 9.7 mph 16.1 mph 81 % 0.0 in
20:57 19.1 °F 15.8 °F 1015.1 in SW 11.3 mph 17.7 mph 81 % 0.0 in
21:02 18.9 °F 15.6 °F 1015.1 in SW 6.4 mph 17.7 mph 81 % 0.0 in
21:12 18.6 °F 15.5 °F 1015.1 in SW 4.8 mph 19.3 mph 82 % 0.0 in
21:17 18.4 °F 15.3 °F 1015.1 in SSW 8.0 mph 19.3 mph 82 % 0.0 in
21:22 18.3 °F 15.4 °F 1015.5 in SSW 6.4 mph 19.3 mph 83 % 0.0 in
21:32 18.1 °F 15.4 °F 1015.5 in SW 3.2 mph 17.7 mph 84 % 0.0 in
21:37 18.0 °F 15.3 °F 1015.5 in SW 4.8 mph 14.5 mph 84 % 0.0 in
21:42 17.9 °F 15.2 °F 1015.5 in SW 9.7 mph 14.5 mph 84 % 0.0 in
21:52 18.0 °F 14.9 °F 1015.8 in WSW 16.1 mph 17.7 mph 82 % 0.0 in
21:57 18.1 °F 15.0 °F 1015.8 in SSE 6.4 mph 17.7 mph 82 % 0.0 in
22:02 17.9 °F 14.6 °F 1016.1 in WSW 9.7 mph 17.7 mph 81 % 0.0 in
22:12 17.8 °F 14.5 °F 1016.1 in SW 8.0 mph 19.3 mph 81 % 0.0 in
22:17 17.7 °F 14.4 °F 1016.1 in WSW 9.7 mph 16.1 mph 81 % 0.0 in
22:22 17.6 °F 14.3 °F 1016.5 in SSW 9.7 mph 16.1 mph 81 % 0.0 in
22:27 17.4 °F 13.9 °F 1016.5 in SW 14.5 mph 17.7 mph 80 % 0.0 in
22:32 17.3 °F 13.6 °F 1016.5 in WSW 12.9 mph 17.7 mph 79 % 0.0 in
22:37 17.2 °F 13.3 °F 1016.5 in WSW 9.7 mph 22.5 mph 78 % 0.0 in
22:42 17.1 °F 13.2 °F 1016.8 in SW 12.9 mph 22.5 mph 78 % 0.0 in
22:47 17.1 °F 13.4 °F 1016.8 in WSW 8.0 mph 19.3 mph 79 % 0.0 in
22:52 16.9 °F 13.2 °F 1016.8 in SW 6.4 mph 19.3 mph 79 % 0.0 in
22:57 16.8 °F 13.3 °F 1016.8 in WSW 8.0 mph 16.1 mph 80 % 0.0 in
23:02 16.8 °F 13.3 °F 1017.2 in SW 6.4 mph 16.1 mph 80 % 0.0 in
23:07 16.7 °F 13.2 °F 1017.2 in SW 4.8 mph 17.7 mph 80 % 0.0 in
23:12 16.6 °F 13.1 °F 1017.2 in SSW 9.7 mph 17.7 mph 80 % 0.0 in
23:17 16.4 °F 12.9 °F 1017.2 in SW 9.7 mph 17.7 mph 80 % 0.0 in
23:22 16.3 °F 12.8 °F 1017.2 in SW 8.0 mph 17.7 mph 80 % 0.0 in
23:27 16.2 °F 12.9 °F 1017.2 in SW 14.5 mph 17.7 mph 81 % 0.0 in
23:32 16.2 °F 12.9 °F 1017.2 in SW 8.0 mph 17.7 mph 81 % 0.0 in
23:37 16.1 °F 12.8 °F 1017.2 in SW 11.3 mph 17.7 mph 81 % 0.0 in
23:42 16.0 °F 12.7 °F 1017.5 in SW 9.7 mph 17.7 mph 81 % 0.0 in
23:47 15.9 °F 12.6 °F 1017.5 in SW 9.7 mph 17.7 mph 81 % 0.0 in
23:52 15.9 °F 12.6 °F 1017.5 in SW 12.9 mph 17.7 mph 81 % 0.0 in
23:57 15.8 °F 12.5 °F 1017.5 in SW 8.0 mph 17.7 mph 81 % 0.0 in
Meteo18
Compliments of Weather Underground - 4 mb

Script developed by  Jim McMurry - jmcmurry@mwt.net Adapted for the template by  Wim van der Kuil - Leuven-Template.eu

You find our weather info also at:

European Weather Network

Weather Underground

Equipment we use:

Weather-station
Davis Vue

Weather-program
Meteobridge

Weather-server
Raspberry PI 2 B+

Provider
1 and 1

Davis Vue

Meteobridge

Raspberry PI 2 B+

1 and 1